sensor_id;sensor_type;location;lat;lon;timestamp;P1;durP1;ratioP1;P2;durP2;ratioP2
18796;SDS011;9526;52.612;13.300;2023-05-08T00:01:17;7.82;;;6.50;;
18796;SDS011;9526;52.612;13.300;2023-05-08T00:03:40;7.95;;;6.57;;
18796;SDS011;9526;52.612;13.300;2023-05-08T00:06:05;8.32;;;7.03;;
18796;SDS011;9526;52.612;13.300;2023-05-08T00:08:29;9.90;;;7.07;;
18796;SDS011;9526;52.612;13.300;2023-05-08T00:10:54;8.32;;;6.72;;
18796;SDS011;9526;52.612;13.300;2023-05-08T00:13:17;9.73;;;7.07;;
18796;SDS011;9526;52.612;13.300;2023-05-08T00:15:41;8.98;;;6.85;;
18796;SDS011;9526;52.612;13.300;2023-05-08T00:18:05;10.00;;;6.78;;
18796;SDS011;9526;52.612;13.300;2023-05-08T00:20:28;11.25;;;6.90;;
18796;SDS011;9526;52.612;13.300;2023-05-08T00:22:53;8.75;;;6.88;;
18796;SDS011;9526;52.612;13.300;2023-05-08T00:25:18;9.25;;;6.88;;
18796;SDS011;9526;52.612;13.300;2023-05-08T00:27:43;9.68;;;6.50;;
18796;SDS011;9526;52.612;13.300;2023-05-08T00:30:07;9.55;;;7.10;;
18796;SDS011;9526;52.612;13.300;2023-05-08T00:32:32;11.05;;;6.68;;
18796;SDS011;9526;52.612;13.300;2023-05-08T00:34:56;10.85;;;7.40;;
18796;SDS011;9526;52.612;13.300;2023-05-08T00:37:19;9.35;;;6.70;;
18796;SDS011;9526;52.612;13.300;2023-05-08T00:39:43;10.30;;;7.20;;
18796;SDS011;9526;52.612;13.300;2023-05-08T00:42:06;9.88;;;7.20;;
18796;SDS011;9526;52.612;13.300;2023-05-08T00:44:31;11.60;;;7.38;;
18796;SDS011;9526;52.612;13.300;2023-05-08T00:46:55;9.98;;;7.93;;
18796;SDS011;9526;52.612;13.300;2023-05-08T00:49:19;10.57;;;7.65;;
18796;SDS011;9526;52.612;13.300;2023-05-08T00:51:44;10.95;;;8.00;;
18796;SDS011;9526;52.612;13.300;2023-05-08T00:54:10;8.73;;;7.32;;
18796;SDS011;9526;52.612;13.300;2023-05-08T00:56:34;9.20;;;7.57;;
18796;SDS011;9526;52.612;13.300;2023-05-08T00:58:59;10.13;;;7.20;;
18796;SDS011;9526;52.612;13.300;2023-05-08T01:01:24;11.85;;;7.68;;
18796;SDS011;9526;52.612;13.300;2023-05-08T01:03:48;10.63;;;7.68;;
18796;SDS011;9526;52.612;13.300;2023-05-08T01:06:12;10.67;;;7.73;;
18796;SDS011;9526;52.612;13.300;2023-05-08T01:08:35;10.40;;;6.85;;
18796;SDS011;9526;52.612;13.300;2023-05-08T01:11:01;8.70;;;7.05;;
18796;SDS011;9526;52.612;13.300;2023-05-08T01:13:49;8.85;;;6.75;;
18796;SDS011;9526;52.612;13.300;2023-05-08T01:16:21;9.23;;;7.43;;
18796;SDS011;9526;52.612;13.300;2023-05-08T01:19:11;9.77;;;7.53;;
18796;SDS011;9526;52.612;13.300;2023-05-08T01:22:32;11.68;;;7.15;;
18796;SDS011;9526;52.612;13.300;2023-05-08T01:25:31;11.55;;;7.25;;
18796;SDS011;9526;52.612;13.300;2023-05-08T01:32:28;9.38;;;7.25;;
18796;SDS011;9526;52.612;13.300;2023-05-08T01:34:59;11.02;;;7.47;;
18796;SDS011;9526;52.612;13.300;2023-05-08T01:37:34;11.70;;;7.57;;
18796;SDS011;9526;52.612;13.300;2023-05-08T01:40:06;11.23;;;7.63;;
18796;SDS011;9526;52.612;13.300;2023-05-08T01:42:40;9.70;;;7.10;;
18796;SDS011;9526;52.612;13.300;2023-05-08T01:45:11;9.68;;;7.50;;
18796;SDS011;9526;52.612;13.300;2023-05-08T01:47:43;10.32;;;7.82;;
18796;SDS011;9526;52.612;13.300;2023-05-08T01:50:15;10.32;;;7.28;;
18796;SDS011;9526;52.612;13.300;2023-05-08T01:52:55;11.85;;;8.27;;
18796;SDS011;9526;52.612;13.300;2023-05-08T01:55:26;9.35;;;6.97;;
18796;SDS011;9526;52.612;13.300;2023-05-08T01:57:57;9.45;;;7.63;;
18796;SDS011;9526;52.612;13.300;2023-05-08T02:00:21;11.25;;;7.95;;
18796;SDS011;9526;52.612;13.300;2023-05-08T02:02:47;13.60;;;7.83;;
18796;SDS011;9526;52.612;13.300;2023-05-08T02:05:13;12.07;;;8.50;;
18796;SDS011;9526;52.612;13.300;2023-05-08T02:07:40;10.63;;;7.23;;
18796;SDS011;9526;52.612;13.300;2023-05-08T02:10:06;11.40;;;7.72;;
18796;SDS011;9526;52.612;13.300;2023-05-08T02:12:32;11.87;;;7.80;;
18796;SDS011;9526;52.612;13.300;2023-05-08T02:14:59;12.02;;;7.72;;
18796;SDS011;9526;52.612;13.300;2023-05-08T02:17:23;11.00;;;7.55;;
18796;SDS011;9526;52.612;13.300;2023-05-08T02:19:49;11.30;;;7.57;;
18796;SDS011;9526;52.612;13.300;2023-05-08T02:22:14;9.75;;;7.45;;
18796;SDS011;9526;52.612;13.300;2023-05-08T02:24:38;14.00;;;7.50;;
18796;SDS011;9526;52.612;13.300;2023-05-08T02:27:04;10.98;;;8.52;;
18796;SDS011;9526;52.612;13.300;2023-05-08T02:29:28;13.57;;;8.88;;
18796;SDS011;9526;52.612;13.300;2023-05-08T02:31:52;12.97;;;8.07;;
18796;SDS011;9526;52.612;13.300;2023-05-08T02:34:17;12.53;;;8.17;;
18796;SDS011;9526;52.612;13.300;2023-05-08T02:36:44;12.05;;;8.52;;
18796;SDS011;9526;52.612;13.300;2023-05-08T02:39:10;14.63;;;8.75;;
18796;SDS011;9526;52.612;13.300;2023-05-08T02:41:35;15.02;;;8.68;;
18796;SDS011;9526;52.612;13.300;2023-05-08T02:44:02;11.37;;;8.60;;
18796;SDS011;9526;52.612;13.300;2023-05-08T02:46:29;14.52;;;8.95;;
18796;SDS011;9526;52.612;13.300;2023-05-08T02:49:02;12.38;;;9.10;;
18796;SDS011;9526;52.612;13.300;2023-05-08T02:51:33;12.05;;;9.07;;
18796;SDS011;9526;52.612;13.300;2023-05-08T02:54:12;14.15;;;8.60;;
18796;SDS011;9526;52.612;13.300;2023-05-08T02:56:43;16.15;;;9.15;;
18796;SDS011;9526;52.612;13.300;2023-05-08T02:59:18;14.80;;;8.85;;
18796;SDS011;9526;52.612;13.300;2023-05-08T03:01:49;11.43;;;8.88;;
18796;SDS011;9526;52.612;13.300;2023-05-08T03:04:23;13.20;;;9.30;;
18796;SDS011;9526;52.612;13.300;2023-05-08T03:06:50;13.03;;;9.63;;
18796;SDS011;9526;52.612;13.300;2023-05-08T03:09:19;16.25;;;9.73;;
18796;SDS011;9526;52.612;13.300;2023-05-08T03:11:47;12.65;;;9.15;;
18796;SDS011;9526;52.612;13.300;2023-05-08T03:14:21;12.98;;;9.30;;
18796;SDS011;9526;52.612;13.300;2023-05-08T03:16:49;13.90;;;9.23;;
18796;SDS011;9526;52.612;13.300;2023-05-08T03:19:16;13.37;;;9.33;;
18796;SDS011;9526;52.612;13.300;2023-05-08T03:21:45;12.33;;;9.27;;
18796;SDS011;9526;52.612;13.300;2023-05-08T03:24:11;13.95;;;9.13;;
18796;SDS011;9526;52.612;13.300;2023-05-08T03:26:41;12.97;;;9.70;;
18796;SDS011;9526;52.612;13.300;2023-05-08T03:29:05;13.27;;;9.37;;
18796;SDS011;9526;52.612;13.300;2023-05-08T03:31:30;13.80;;;9.20;;
18796;SDS011;9526;52.612;13.300;2023-05-08T03:33:55;12.77;;;9.80;;
18796;SDS011;9526;52.612;13.300;2023-05-08T03:36:20;14.00;;;9.70;;
18796;SDS011;9526;52.612;13.300;2023-05-08T03:38:45;14.87;;;10.07;;
18796;SDS011;9526;52.612;13.300;2023-05-08T03:41:09;14.67;;;9.57;;
18796;SDS011;9526;52.612;13.300;2023-05-08T03:43:34;14.13;;;9.60;;
18796;SDS011;9526;52.612;13.300;2023-05-08T03:45:59;13.53;;;9.33;;
18796;SDS011;9526;52.612;13.300;2023-05-08T03:48:23;14.30;;;9.77;;
18796;SDS011;9526;52.612;13.300;2023-05-08T03:50:48;13.23;;;10.07;;
18796;SDS011;9526;52.612;13.300;2023-05-08T03:53:13;12.73;;;8.70;;
18796;SDS011;9526;52.612;13.300;2023-05-08T03:55:37;12.77;;;9.30;;
18796;SDS011;9526;52.612;13.300;2023-05-08T03:58:04;14.20;;;9.93;;
18796;SDS011;9526;52.612;13.300;2023-05-08T04:00:47;13.57;;;10.23;;
18796;SDS011;9526;52.612;13.300;2023-05-08T04:03:26;17.03;;;10.23;;
18796;SDS011;9526;52.612;13.300;2023-05-08T04:06:21;13.63;;;10.10;;
18796;SDS011;9526;52.612;13.300;2023-05-08T04:09:04;18.60;;;10.53;;
18796;SDS011;9526;52.612;13.300;2023-05-08T04:11:32;13.90;;;10.40;;
18796;SDS011;9526;52.612;13.300;2023-05-08T04:14:04;15.00;;;10.70;;
18796;SDS011;9526;52.612;13.300;2023-05-08T04:16:36;14.67;;;10.90;;
18796;SDS011;9526;52.612;13.300;2023-05-08T04:19:06;15.60;;;10.93;;
18796;SDS011;9526;52.612;13.300;2023-05-08T04:21:33;15.17;;;10.50;;
18796;SDS011;9526;52.612;13.300;2023-05-08T04:23:59;14.43;;;10.43;;
18796;SDS011;9526;52.612;13.300;2023-05-08T04:26:27;12.83;;;10.00;;
18796;SDS011;9526;52.612;13.300;2023-05-08T04:28:52;18.17;;;9.30;;
18796;SDS011;9526;52.612;13.300;2023-05-08T04:31:16;13.07;;;10.17;;
18796;SDS011;9526;52.612;13.300;2023-05-08T04:33:43;18.40;;;10.33;;
18796;SDS011;9526;52.612;13.300;2023-05-08T04:36:09;16.90;;;10.27;;
18796;SDS011;9526;52.612;13.300;2023-05-08T04:38:35;13.87;;;9.73;;
18796;SDS011;9526;52.612;13.300;2023-05-08T04:41:00;14.30;;;9.97;;
18796;SDS011;9526;52.612;13.300;2023-05-08T04:43:23;14.60;;;9.80;;
18796;SDS011;9526;52.612;13.300;2023-05-08T04:45:47;14.77;;;10.20;;
18796;SDS011;9526;52.612;13.300;2023-05-08T04:48:11;15.20;;;9.80;;
18796;SDS011;9526;52.612;13.300;2023-05-08T04:50:36;16.90;;;10.27;;
18796;SDS011;9526;52.612;13.300;2023-05-08T04:53:00;18.67;;;9.83;;
18796;SDS011;9526;52.612;13.300;2023-05-08T04:55:23;15.27;;;10.43;;
18796;SDS011;9526;52.612;13.300;2023-05-08T04:57:47;15.20;;;9.60;;
18796;SDS011;9526;52.612;13.300;2023-05-08T05:00:12;16.80;;;10.03;;
18796;SDS011;9526;52.612;13.300;2023-05-08T05:02:37;14.33;;;9.80;;
18796;SDS011;9526;52.612;13.300;2023-05-08T05:05:02;14.20;;;10.00;;
18796;SDS011;9526;52.612;13.300;2023-05-08T05:07:27;12.63;;;9.57;;
18796;SDS011;9526;52.612;13.300;2023-05-08T05:09:51;12.15;;;8.98;;
18796;SDS011;9526;52.612;13.300;2023-05-08T05:12:14;12.73;;;8.98;;
18796;SDS011;9526;52.612;13.300;2023-05-08T05:14:39;14.55;;;9.73;;
18796;SDS011;9526;52.612;13.300;2023-05-08T05:17:02;12.52;;;9.05;;
18796;SDS011;9526;52.612;13.300;2023-05-08T05:19:26;12.60;;;8.55;;
18796;SDS011;9526;52.612;13.300;2023-05-08T05:21:50;11.63;;;8.50;;
18796;SDS011;9526;52.612;13.300;2023-05-08T05:24:15;11.65;;;8.50;;
18796;SDS011;9526;52.612;13.300;2023-05-08T05:26:39;15.30;;;8.60;;
18796;SDS011;9526;52.612;13.300;2023-05-08T05:29:03;12.70;;;8.38;;
18796;SDS011;9526;52.612;13.300;2023-05-08T05:31:27;11.30;;;8.27;;
18796;SDS011;9526;52.612;13.300;2023-05-08T05:33:51;11.95;;;9.00;;
18796;SDS011;9526;52.612;13.300;2023-05-08T05:36:15;12.77;;;8.80;;
18796;SDS011;9526;52.612;13.300;2023-05-08T05:38:39;14.52;;;9.05;;
18796;SDS011;9526;52.612;13.300;2023-05-08T05:41:04;12.68;;;8.02;;
18796;SDS011;9526;52.612;13.300;2023-05-08T05:43:27;12.50;;;8.23;;
18796;SDS011;9526;52.612;13.300;2023-05-08T05:45:51;11.77;;;7.97;;
18796;SDS011;9526;52.612;13.300;2023-05-08T05:48:17;12.15;;;7.72;;
18796;SDS011;9526;52.612;13.300;2023-05-08T05:50:41;11.52;;;7.95;;
18796;SDS011;9526;52.612;13.300;2023-05-08T05:53:05;9.77;;;6.55;;
18796;SDS011;9526;52.612;13.300;2023-05-08T05:55:28;9.52;;;6.50;;
18796;SDS011;9526;52.612;13.300;2023-05-08T05:57:54;9.43;;;6.20;;
18796;SDS011;9526;52.612;13.300;2023-05-08T06:00:17;13.20;;;6.50;;
18796;SDS011;9526;52.612;13.300;2023-05-08T06:02:46;5.88;;;4.25;;
18796;SDS011;9526;52.612;13.300;2023-05-08T06:05:11;8.45;;;5.85;;
18796;SDS011;9526;52.612;13.300;2023-05-08T06:07:35;8.25;;;5.53;;
18796;SDS011;9526;52.612;13.300;2023-05-08T06:10:00;8.13;;;6.85;;
18796;SDS011;9526;52.612;13.300;2023-05-08T06:12:24;8.90;;;5.20;;
18796;SDS011;9526;52.612;13.300;2023-05-08T06:14:51;6.05;;;5.43;;
18796;SDS011;9526;52.612;13.300;2023-05-08T06:17:15;8.73;;;5.60;;
18796;SDS011;9526;52.612;13.300;2023-05-08T06:19:39;7.25;;;5.53;;
18796;SDS011;9526;52.612;13.300;2023-05-08T06:22:03;7.47;;;5.45;;
18796;SDS011;9526;52.612;13.300;2023-05-08T06:24:26;6.90;;;5.18;;
18796;SDS011;9526;52.612;13.300;2023-05-08T06:26:50;8.27;;;5.22;;
18796;SDS011;9526;52.612;13.300;2023-05-08T06:29:14;5.50;;;4.85;;
18796;SDS011;9526;52.612;13.300;2023-05-08T06:31:39;7.47;;;5.70;;
18796;SDS011;9526;52.612;13.300;2023-05-08T06:34:02;7.35;;;5.13;;
18796;SDS011;9526;52.612;13.300;2023-05-08T06:36:26;7.65;;;5.05;;
18796;SDS011;9526;52.612;13.300;2023-05-08T06:38:49;7.57;;;5.47;;
18796;SDS011;9526;52.612;13.300;2023-05-08T06:41:13;5.60;;;5.00;;
18796;SDS011;9526;52.612;13.300;2023-05-08T06:43:37;7.97;;;4.80;;
18796;SDS011;9526;52.612;13.300;2023-05-08T06:46:00;5.68;;;4.22;;
18796;SDS011;9526;52.612;13.300;2023-05-08T06:48:25;4.78;;;4.28;;
18796;SDS011;9526;52.612;13.300;2023-05-08T06:50:49;6.60;;;4.28;;
18796;SDS011;9526;52.612;13.300;2023-05-08T06:53:13;7.38;;;4.60;;
18796;SDS011;9526;52.612;13.300;2023-05-08T06:55:37;4.90;;;3.80;;
18796;SDS011;9526;52.612;13.300;2023-05-08T06:58:00;4.88;;;4.07;;
18796;SDS011;9526;52.612;13.300;2023-05-08T07:00:25;6.38;;;4.30;;
18796;SDS011;9526;52.612;13.300;2023-05-08T07:02:48;5.32;;;3.88;;
18796;SDS011;9526;52.612;13.300;2023-05-08T07:05:14;6.55;;;4.00;;
18796;SDS011;9526;52.612;13.300;2023-05-08T07:07:38;5.07;;;3.45;;
18796;SDS011;9526;52.612;13.300;2023-05-08T07:10:03;7.45;;;3.58;;
18796;SDS011;9526;52.612;13.300;2023-05-08T07:12:28;4.95;;;3.60;;
18796;SDS011;9526;52.612;13.300;2023-05-08T07:14:52;4.50;;;3.40;;
18796;SDS011;9526;52.612;13.300;2023-05-08T07:17:35;5.18;;;3.42;;
18796;SDS011;9526;52.612;13.300;2023-05-08T07:19:59;7.60;;;3.60;;
18796;SDS011;9526;52.612;13.300;2023-05-08T07:22:24;6.82;;;3.60;;
18796;SDS011;9526;52.612;13.300;2023-05-08T07:24:47;4.47;;;3.40;;
18796;SDS011;9526;52.612;13.300;2023-05-08T07:27:11;5.88;;;3.40;;
18796;SDS011;9526;52.612;13.300;2023-05-08T07:29:35;7.18;;;3.72;;
18796;SDS011;9526;52.612;13.300;2023-05-08T07:32:01;8.85;;;3.50;;
18796;SDS011;9526;52.612;13.300;2023-05-08T07:34:28;7.00;;;3.58;;
18796;SDS011;9526;52.612;13.300;2023-05-08T07:36:54;8.27;;;3.58;;
18796;SDS011;9526;52.612;13.300;2023-05-08T07:39:19;8.68;;;4.00;;
18796;SDS011;9526;52.612;13.300;2023-05-08T07:41:43;4.82;;;3.47;;
18796;SDS011;9526;52.612;13.300;2023-05-08T07:44:10;7.18;;;3.60;;
18796;SDS011;9526;52.612;13.300;2023-05-08T07:46:34;4.60;;;3.30;;
18796;SDS011;9526;52.612;13.300;2023-05-08T07:48:58;4.15;;;3.72;;
18796;SDS011;9526;52.612;13.300;2023-05-08T07:51:21;7.72;;;4.05;;
18796;SDS011;9526;52.612;13.300;2023-05-08T07:53:45;6.53;;;3.60;;
18796;SDS011;9526;52.612;13.300;2023-05-08T07:56:10;6.05;;;3.65;;
18796;SDS011;9526;52.612;13.300;2023-05-08T07:58:34;4.88;;;3.80;;
18796;SDS011;9526;52.612;13.300;2023-05-08T08:00:57;7.07;;;4.00;;
18796;SDS011;9526;52.612;13.300;2023-05-08T08:03:22;4.80;;;3.58;;
18796;SDS011;9526;52.612;13.300;2023-05-08T08:05:46;8.65;;;4.13;;
18796;SDS011;9526;52.612;13.300;2023-05-08T08:08:09;6.63;;;3.72;;
18796;SDS011;9526;52.612;13.300;2023-05-08T08:10:33;5.90;;;3.80;;
18796;SDS011;9526;52.612;13.300;2023-05-08T08:12:58;5.97;;;3.80;;
18796;SDS011;9526;52.612;13.300;2023-05-08T08:15:22;4.50;;;3.40;;
18796;SDS011;9526;52.612;13.300;2023-05-08T08:17:46;6.13;;;4.18;;
18796;SDS011;9526;52.612;13.300;2023-05-08T08:20:10;5.22;;;3.50;;
18796;SDS011;9526;52.612;13.300;2023-05-08T08:22:34;4.28;;;3.25;;
18796;SDS011;9526;52.612;13.300;2023-05-08T08:25:00;4.75;;;3.10;;
18796;SDS011;9526;52.612;13.300;2023-05-08T08:27:23;6.00;;;3.35;;
18796;SDS011;9526;52.612;13.300;2023-05-08T08:29:48;6.35;;;3.40;;
18796;SDS011;9526;52.612;13.300;2023-05-08T08:32:21;3.97;;;3.40;;
18796;SDS011;9526;52.612;13.300;2023-05-08T08:34:45;4.93;;;3.40;;
18796;SDS011;9526;52.612;13.300;2023-05-08T08:37:09;4.93;;;3.20;;
18796;SDS011;9526;52.612;13.300;2023-05-08T08:39:35;6.03;;;3.05;;
18796;SDS011;9526;52.612;13.300;2023-05-08T08:41:58;6.63;;;3.20;;
18796;SDS011;9526;52.612;13.300;2023-05-08T08:44:22;4.28;;;3.55;;
18796;SDS011;9526;52.612;13.300;2023-05-08T08:46:49;3.17;;;2.88;;
18796;SDS011;9526;52.612;13.300;2023-05-08T08:49:13;5.53;;;3.05;;
18796;SDS011;9526;52.612;13.300;2023-05-08T08:51:42;3.65;;;3.13;;
18796;SDS011;9526;52.612;13.300;2023-05-08T08:54:10;5.82;;;3.50;;
18796;SDS011;9526;52.612;13.300;2023-05-08T08:56:36;4.78;;;2.90;;
18796;SDS011;9526;52.612;13.300;2023-05-08T08:59:03;5.80;;;2.88;;
18796;SDS011;9526;52.612;13.300;2023-05-08T09:01:28;5.88;;;2.55;;
18796;SDS011;9526;52.612;13.300;2023-05-08T09:03:58;7.47;;;2.63;;
18796;SDS011;9526;52.612;13.300;2023-05-08T09:06:22;3.50;;;2.67;;
18796;SDS011;9526;52.612;13.300;2023-05-08T09:08:48;3.58;;;2.58;;
18796;SDS011;9526;52.612;13.300;2023-05-08T09:11:13;3.83;;;2.80;;
18796;SDS011;9526;52.612;13.300;2023-05-08T09:13:37;5.32;;;2.97;;
18796;SDS011;9526;52.612;13.300;2023-05-08T09:16:01;6.80;;;2.95;;
18796;SDS011;9526;52.612;13.300;2023-05-08T09:18:25;4.55;;;3.30;;
18796;SDS011;9526;52.612;13.300;2023-05-08T09:20:50;7.97;;;2.80;;
18796;SDS011;9526;52.612;13.300;2023-05-08T09:23:14;3.55;;;2.63;;
18796;SDS011;9526;52.612;13.300;2023-05-08T09:25:42;4.95;;;2.90;;
18796;SDS011;9526;52.612;13.300;2023-05-08T09:28:16;8.13;;;3.10;;
18796;SDS011;9526;52.612;13.300;2023-05-08T09:30:47;4.07;;;2.70;;
18796;SDS011;9526;52.612;13.300;2023-05-08T09:33:12;5.85;;;2.85;;
18796;SDS011;9526;52.612;13.300;2023-05-08T09:35:36;9.57;;;3.50;;
18796;SDS011;9526;52.612;13.300;2023-05-08T09:38:01;4.40;;;2.80;;
18796;SDS011;9526;52.612;13.300;2023-05-08T09:40:25;3.58;;;2.67;;
18796;SDS011;9526;52.612;13.300;2023-05-08T09:42:49;5.93;;;2.95;;
18796;SDS011;9526;52.612;13.300;2023-05-08T09:45:24;5.75;;;2.72;;
18796;SDS011;9526;52.612;13.300;2023-05-08T09:47:49;7.30;;;3.63;;
18796;SDS011;9526;52.612;13.300;2023-05-08T09:50:13;4.72;;;2.90;;
18796;SDS011;9526;52.612;13.300;2023-05-08T09:52:37;4.85;;;2.80;;
18796;SDS011;9526;52.612;13.300;2023-05-08T09:55:10;5.40;;;2.85;;
18796;SDS011;9526;52.612;13.300;2023-05-08T09:57:35;4.78;;;2.90;;
18796;SDS011;9526;52.612;13.300;2023-05-08T10:00:00;4.68;;;2.65;;
18796;SDS011;9526;52.612;13.300;2023-05-08T10:02:27;4.40;;;2.70;;
18796;SDS011;9526;52.612;13.300;2023-05-08T10:04:51;3.92;;;2.53;;
18796;SDS011;9526;52.612;13.300;2023-05-08T10:07:14;3.97;;;2.75;;
18796;SDS011;9526;52.612;13.300;2023-05-08T10:09:38;5.00;;;2.50;;
18796;SDS011;9526;52.612;13.300;2023-05-08T10:12:12;3.75;;;2.17;;
18796;SDS011;9526;52.612;13.300;2023-05-08T10:14:36;4.85;;;3.00;;
18796;SDS011;9526;52.612;13.300;2023-05-08T10:16:59;8.20;;;2.75;;
18796;SDS011;9526;52.612;13.300;2023-05-08T10:19:29;2.80;;;2.55;;
18796;SDS011;9526;52.612;13.300;2023-05-08T10:21:53;6.28;;;2.40;;
18796;SDS011;9526;52.612;13.300;2023-05-08T10:24:17;6.18;;;2.65;;
18796;SDS011;9526;52.612;13.300;2023-05-08T10:26:43;4.63;;;2.67;;
18796;SDS011;9526;52.612;13.300;2023-05-08T10:29:31;3.80;;;2.30;;
18796;SDS011;9526;52.612;13.300;2023-05-08T10:31:59;3.35;;;2.38;;
18796;SDS011;9526;52.612;13.300;2023-05-08T10:34:27;4.55;;;2.33;;
18796;SDS011;9526;52.612;13.300;2023-05-08T10:36:54;3.47;;;2.33;;
18796;SDS011;9526;52.612;13.300;2023-05-08T10:39:18;2.60;;;2.40;;
18796;SDS011;9526;52.612;13.300;2023-05-08T10:41:42;5.15;;;2.72;;
18796;SDS011;9526;52.612;13.300;2023-05-08T10:44:06;4.20;;;2.33;;
18796;SDS011;9526;52.612;13.300;2023-05-08T10:46:36;2.88;;;2.10;;
18796;SDS011;9526;52.612;13.300;2023-05-08T10:49:11;4.10;;;2.53;;
18796;SDS011;9526;52.612;13.300;2023-05-08T10:51:44;2.83;;;2.20;;
18796;SDS011;9526;52.612;13.300;2023-05-08T10:54:20;4.18;;;2.42;;
18796;SDS011;9526;52.612;13.300;2023-05-08T10:57:05;2.70;;;2.10;;
18796;SDS011;9526;52.612;13.300;2023-05-08T10:59:32;3.60;;;2.20;;
18796;SDS011;9526;52.612;13.300;2023-05-08T11:02:03;6.75;;;2.45;;
18796;SDS011;9526;52.612;13.300;2023-05-08T11:04:28;5.10;;;2.08;;
18796;SDS011;9526;52.612;13.300;2023-05-08T11:06:52;5.88;;;2.38;;
18796;SDS011;9526;52.612;13.300;2023-05-08T11:09:20;5.95;;;2.78;;
18796;SDS011;9526;52.612;13.300;2023-05-08T11:11:44;3.00;;;2.35;;
18796;SDS011;9526;52.612;13.300;2023-05-08T11:14:28;3.05;;;2.22;;
18796;SDS011;9526;52.612;13.300;2023-05-08T11:17:04;3.05;;;2.03;;
18796;SDS011;9526;52.612;13.300;2023-05-08T11:19:28;5.07;;;2.30;;
18796;SDS011;9526;52.612;13.300;2023-05-08T11:24:49;2.83;;;2.17;;
18796;SDS011;9526;52.612;13.300;2023-05-08T11:27:16;4.60;;;2.22;;
18796;SDS011;9526;52.612;13.300;2023-05-08T11:29:40;5.65;;;2.05;;
18796;SDS011;9526;52.612;13.300;2023-05-08T11:32:06;5.50;;;2.40;;
18796;SDS011;9526;52.612;13.300;2023-05-08T11:37:10;4.20;;;2.10;;
18796;SDS011;9526;52.612;13.300;2023-05-08T11:39:38;6.45;;;1.90;;
18796;SDS011;9526;52.612;13.300;2023-05-08T11:44:59;4.32;;;2.20;;
18796;SDS011;9526;52.612;13.300;2023-05-08T11:47:30;4.00;;;2.20;;
18796;SDS011;9526;52.612;13.300;2023-05-08T11:49:59;2.50;;;2.30;;
18796;SDS011;9526;52.612;13.300;2023-05-08T11:52:23;3.00;;;2.10;;
18796;SDS011;9526;52.612;13.300;2023-05-08T11:54:47;6.85;;;2.05;;
18796;SDS011;9526;52.612;13.300;2023-05-08T11:57:11;4.82;;;2.03;;
18796;SDS011;9526;52.612;13.300;2023-05-08T11:59:39;6.18;;;2.20;;
18796;SDS011;9526;52.612;13.300;2023-05-08T12:02:04;5.22;;;2.13;;
18796;SDS011;9526;52.612;13.300;2023-05-08T12:04:33;3.85;;;1.90;;
18796;SDS011;9526;52.612;13.300;2023-05-08T12:07:06;3.67;;;2.20;;
18796;SDS011;9526;52.612;13.300;2023-05-08T12:09:29;6.30;;;2.60;;
18796;SDS011;9526;52.612;13.300;2023-05-08T12:11:55;6.60;;;2.35;;
18796;SDS011;9526;52.612;13.300;2023-05-08T12:14:21;2.97;;;1.90;;
18796;SDS011;9526;52.612;13.300;2023-05-08T12:16:45;2.80;;;2.30;;
18796;SDS011;9526;52.612;13.300;2023-05-08T12:19:09;4.10;;;2.33;;
18796;SDS011;9526;52.612;13.300;2023-05-08T12:21:36;2.58;;;1.98;;
18796;SDS011;9526;52.612;13.300;2023-05-08T12:24:00;2.67;;;2.10;;
18796;SDS011;9526;52.612;13.300;2023-05-08T12:26:27;4.07;;;1.92;;
18796;SDS011;9526;52.612;13.300;2023-05-08T12:28:54;4.45;;;1.98;;
18796;SDS011;9526;52.612;13.300;2023-05-08T12:31:18;5.57;;;1.90;;
18796;SDS011;9526;52.612;13.300;2023-05-08T12:33:42;4.05;;;2.00;;
18796;SDS011;9526;52.612;13.300;2023-05-08T12:36:06;4.05;;;2.10;;
18796;SDS011;9526;52.612;13.300;2023-05-08T12:38:31;2.58;;;1.80;;
18796;SDS011;9526;52.612;13.300;2023-05-08T12:40:55;3.28;;;1.70;;
18796;SDS011;9526;52.612;13.300;2023-05-08T12:43:19;2.45;;;1.80;;
18796;SDS011;9526;52.612;13.300;2023-05-08T12:45:43;3.13;;;1.95;;
18796;SDS011;9526;52.612;13.300;2023-05-08T12:48:07;2.67;;;1.90;;
18796;SDS011;9526;52.612;13.300;2023-05-08T12:50:33;3.47;;;2.00;;
18796;SDS011;9526;52.612;13.300;2023-05-08T12:53:00;6.32;;;2.45;;
18796;SDS011;9526;52.612;13.300;2023-05-08T12:55:27;4.63;;;1.80;;
18796;SDS011;9526;52.612;13.300;2023-05-08T12:57:59;5.60;;;1.92;;
18796;SDS011;9526;52.612;13.300;2023-05-08T13:00:32;4.18;;;1.90;;
18796;SDS011;9526;52.612;13.300;2023-05-08T13:03:00;6.15;;;2.25;;
18796;SDS011;9526;52.612;13.300;2023-05-08T13:05:24;4.45;;;2.20;;
18796;SDS011;9526;52.612;13.300;2023-05-08T13:07:48;2.72;;;1.85;;
18796;SDS011;9526;52.612;13.300;2023-05-08T13:10:11;3.35;;;2.05;;
18796;SDS011;9526;52.612;13.300;2023-05-08T13:12:37;6.75;;;2.17;;
18796;SDS011;9526;52.612;13.300;2023-05-08T13:15:01;5.57;;;2.20;;
18796;SDS011;9526;52.612;13.300;2023-05-08T13:17:25;4.88;;;2.13;;
18796;SDS011;9526;52.612;13.300;2023-05-08T13:19:49;4.15;;;2.05;;
18796;SDS011;9526;52.612;13.300;2023-05-08T13:22:12;5.13;;;2.08;;
18796;SDS011;9526;52.612;13.300;2023-05-08T13:24:36;4.10;;;2.35;;
18796;SDS011;9526;52.612;13.300;2023-05-08T13:26:59;3.03;;;2.10;;
18796;SDS011;9526;52.612;13.300;2023-05-08T13:29:24;4.30;;;2.00;;
18796;SDS011;9526;52.612;13.300;2023-05-08T13:31:48;6.97;;;2.05;;
18796;SDS011;9526;52.612;13.300;2023-05-08T13:34:12;5.75;;;2.00;;
18796;SDS011;9526;52.612;13.300;2023-05-08T13:36:35;6.25;;;2.20;;
18796;SDS011;9526;52.612;13.300;2023-05-08T13:38:59;3.65;;;2.10;;
18796;SDS011;9526;52.612;13.300;2023-05-08T13:41:23;4.90;;;1.98;;
18796;SDS011;9526;52.612;13.300;2023-05-08T13:43:46;7.35;;;1.95;;
18796;SDS011;9526;52.612;13.300;2023-05-08T13:46:11;4.82;;;2.20;;
18796;SDS011;9526;52.612;13.300;2023-05-08T13:48:35;3.58;;;2.00;;
18796;SDS011;9526;52.612;13.300;2023-05-08T13:50:59;2.58;;;2.20;;
18796;SDS011;9526;52.612;13.300;2023-05-08T13:53:22;3.45;;;2.15;;
18796;SDS011;9526;52.612;13.300;2023-05-08T13:55:46;2.10;;;1.90;;
18796;SDS011;9526;52.612;13.300;2023-05-08T13:58:10;5.40;;;1.90;;
18796;SDS011;9526;52.612;13.300;2023-05-08T14:00:33;3.25;;;2.13;;
18796;SDS011;9526;52.612;13.300;2023-05-08T14:02:58;3.30;;;1.85;;
18796;SDS011;9526;52.612;13.300;2023-05-08T14:05:22;2.92;;;2.00;;
18796;SDS011;9526;52.612;13.300;2023-05-08T14:07:46;4.30;;;2.00;;
18796;SDS011;9526;52.612;13.300;2023-05-08T14:10:10;6.75;;;2.53;;
18796;SDS011;9526;52.612;13.300;2023-05-08T14:12:33;4.05;;;2.10;;
18796;SDS011;9526;52.612;13.300;2023-05-08T14:14:57;4.80;;;2.30;;
18796;SDS011;9526;52.612;13.300;2023-05-08T14:17:21;4.28;;;2.10;;
18796;SDS011;9526;52.612;13.300;2023-05-08T14:19:46;4.03;;;2.25;;
18796;SDS011;9526;52.612;13.300;2023-05-08T14:22:10;2.65;;;2.10;;
18796;SDS011;9526;52.612;13.300;2023-05-08T14:24:33;2.47;;;2.28;;
18796;SDS011;9526;52.612;13.300;2023-05-08T14:26:57;3.70;;;2.42;;
18796;SDS011;9526;52.612;13.300;2023-05-08T14:29:22;4.03;;;2.30;;
18796;SDS011;9526;52.612;13.300;2023-05-08T14:31:45;2.60;;;2.10;;
18796;SDS011;9526;52.612;13.300;2023-05-08T14:34:10;6.53;;;2.55;;
18796;SDS011;9526;52.612;13.300;2023-05-08T14:36:35;4.15;;;1.88;;
18796;SDS011;9526;52.612;13.300;2023-05-08T14:38:58;2.63;;;2.05;;
18796;SDS011;9526;52.612;13.300;2023-05-08T14:41:25;3.17;;;2.03;;
18796;SDS011;9526;52.612;13.300;2023-05-08T14:43:49;3.90;;;2.10;;
18796;SDS011;9526;52.612;13.300;2023-05-08T14:46:13;5.57;;;2.20;;
18796;SDS011;9526;52.612;13.300;2023-05-08T14:48:37;3.53;;;2.15;;
18796;SDS011;9526;52.612;13.300;2023-05-08T14:51:00;4.50;;;2.40;;